Bloomfield, MT (59315)

7:57 PM MST on February 11, 2016 (GMT -0700)
Dawson Community | | Change Station
CLOSE
Current Station
Airport
Location: Glendive,
Elevation: 2457 ft
Nearby Weather Stations

Elev 2457 ft 47.14 °N, 104.81 °W | Updated 2 minutes ago

Overcast
Overcast
25 °F
Feels Like 19 °F
N
5
Wind Variable Wind from ENE

Today
High -- | Low -- °F
--% Chance of Precip.
Yesterday
High -- | Low -- °F
Precip. -- in
Pressure 30.28 in
Visibility 10.0 miles
Clouds Overcast 1700 ft
Windchill 19 °F
Dew Point 23 °F
Humidity 93%
Rainfall 0.00 in
Snow Depth Not available.
7:12 AM 5:16 PM
Waxing Crescent, 16% visible
METAR KGDV 120255Z AUTO 07004KT 10SM OVC017 M04/M05 A3028 RMK AO1 52014
Pressure 30.28 in
Visibility 10.0 miles
Clouds Overcast 1700 ft
Windchill 19 °F
Dew Point 23 °F
Humidity 93%
Rainfall 0.00 in
Snow Depth Not available.
7:12 AM 5:16 PM
Waxing Crescent, 16% visible
METAR KGDV 120255Z AUTO 07004KT 10SM OVC017 M04/M05 A3028 RMK AO1 52014

10-Day Weather Forecast

Almanac

Astronomy

Feb. 11, 2016 Rise Set
Actual Time
Civil Twilight
Nautical Twilight
Astronomical Twilight
Moon
Length of Visible Light
Length of Day
Tomorrow will be .
, % of the Moon is Illuminated

Today's Extremes

State Highs State Lows

Community

WunderPhotos

Upload Photos

1,892,226 photos uploaded!

WunderBlog® & News

Nearby

Air Quality

  Air Quality AQ Index Pollutant
Not available.

Snow Depth

Station Depth Elevation

Earthquake Activity

City Distance Mag. Time & Date
Minimum magnitude displayed is 2.5.

Coastal Water Temperatures

Place Temperature

Stations

Nearby Weather Stations

Station Location Temp. Windchill Dew Point Humidity Wind Precip. Elev Updated Type
                   

Watches & Warnings

There are currently no watches in effect.